sensor_id;sensor_type;location;lat;lon;timestamp;P1;durP1;ratioP1;P2;durP2;ratioP2
63217;SDS011;49314;48.278;16.378;2023-02-15T00:01:04;32.53;;;29.23;;
63217;SDS011;49314;48.278;16.378;2023-02-15T00:03:29;33.53;;;30.42;;
63217;SDS011;49314;48.278;16.378;2023-02-15T00:05:56;28.80;;;25.63;;
63217;SDS011;49314;48.278;16.378;2023-02-15T00:08:21;31.13;;;27.92;;
63217;SDS011;49314;48.278;16.378;2023-02-15T00:10:47;34.92;;;31.65;;
63217;SDS011;49314;48.278;16.378;2023-02-15T00:13:12;32.00;;;28.75;;
63217;SDS011;49314;48.278;16.378;2023-02-15T00:15:37;32.03;;;28.63;;
63217;SDS011;49314;48.278;16.378;2023-02-15T00:18:03;32.72;;;29.65;;
63217;SDS011;49314;48.278;16.378;2023-02-15T00:20:28;34.10;;;30.73;;
63217;SDS011;49314;48.278;16.378;2023-02-15T00:22:53;42.70;;;38.50;;
63217;SDS011;49314;48.278;16.378;2023-02-15T00:25:18;35.67;;;32.08;;
63217;SDS011;49314;48.278;16.378;2023-02-15T00:27:44;39.08;;;34.95;;
63217;SDS011;49314;48.278;16.378;2023-02-15T00:30:09;39.63;;;35.60;;
63217;SDS011;49314;48.278;16.378;2023-02-15T00:32:35;41.15;;;37.38;;
63217;SDS011;49314;48.278;16.378;2023-02-15T00:35:00;36.28;;;32.45;;
63217;SDS011;49314;48.278;16.378;2023-02-15T00:37:25;36.45;;;32.63;;
63217;SDS011;49314;48.278;16.378;2023-02-15T00:39:50;42.33;;;37.97;;
63217;SDS011;49314;48.278;16.378;2023-02-15T00:42:16;33.85;;;30.27;;
63217;SDS011;49314;48.278;16.378;2023-02-15T00:44:41;39.45;;;35.65;;
63217;SDS011;49314;48.278;16.378;2023-02-15T00:47:06;36.33;;;32.83;;
63217;SDS011;49314;48.278;16.378;2023-02-15T00:49:31;37.35;;;33.78;;
63217;SDS011;49314;48.278;16.378;2023-02-15T00:51:56;44.33;;;40.33;;
63217;SDS011;49314;48.278;16.378;2023-02-15T00:54:22;33.90;;;30.58;;
63217;SDS011;49314;48.278;16.378;2023-02-15T00:56:47;38.72;;;35.13;;
63217;SDS011;49314;48.278;16.378;2023-02-15T00:59:12;34.33;;;30.85;;
63217;SDS011;49314;48.278;16.378;2023-02-15T01:01:37;37.20;;;33.92;;
63217;SDS011;49314;48.278;16.378;2023-02-15T01:04:03;41.50;;;37.83;;
63217;SDS011;49314;48.278;16.378;2023-02-15T01:06:28;31.45;;;28.15;;
63217;SDS011;49314;48.278;16.378;2023-02-15T01:08:53;38.35;;;34.83;;
63217;SDS011;49314;48.278;16.378;2023-02-15T01:11:19;35.88;;;31.63;;
63217;SDS011;49314;48.278;16.378;2023-02-15T01:13:47;33.25;;;28.90;;
63217;SDS011;49314;48.278;16.378;2023-02-15T01:16:12;35.38;;;31.83;;
63217;SDS011;49314;48.278;16.378;2023-02-15T01:18:37;34.42;;;30.70;;
63217;SDS011;49314;48.278;16.378;2023-02-15T01:21:10;36.03;;;32.22;;
63217;SDS011;49314;48.278;16.378;2023-02-15T01:23:35;34.25;;;29.08;;
63217;SDS011;49314;48.278;16.378;2023-02-15T01:26:01;39.70;;;35.80;;
63217;SDS011;49314;48.278;16.378;2023-02-15T01:28:26;38.47;;;34.80;;
63217;SDS011;49314;48.278;16.378;2023-02-15T01:30:52;40.35;;;36.58;;
63217;SDS011;49314;48.278;16.378;2023-02-15T01:33:17;32.90;;;29.60;;
63217;SDS011;49314;48.278;16.378;2023-02-15T01:35:43;40.10;;;36.25;;
63217;SDS011;49314;48.278;16.378;2023-02-15T01:38:08;40.78;;;36.97;;
63217;SDS011;49314;48.278;16.378;2023-02-15T01:40:33;37.75;;;33.72;;
63217;SDS011;49314;48.278;16.378;2023-02-15T01:42:58;41.05;;;36.67;;
63217;SDS011;49314;48.278;16.378;2023-02-15T01:45:25;33.97;;;28.67;;
63217;SDS011;49314;48.278;16.378;2023-02-15T01:50:36;34.92;;;30.92;;
63217;SDS011;49314;48.278;16.378;2023-02-15T01:53:16;34.58;;;30.85;;
63217;SDS011;49314;48.278;16.378;2023-02-15T01:55:45;34.20;;;29.75;;
63217;SDS011;49314;48.278;16.378;2023-02-15T01:58:11;38.10;;;34.50;;
63217;SDS011;49314;48.278;16.378;2023-02-15T02:00:37;33.63;;;30.38;;
63217;SDS011;49314;48.278;16.378;2023-02-15T02:03:02;29.83;;;26.58;;
63217;SDS011;49314;48.278;16.378;2023-02-15T02:05:28;38.92;;;35.58;;
63217;SDS011;49314;48.278;16.378;2023-02-15T02:07:54;36.08;;;32.42;;
63217;SDS011;49314;48.278;16.378;2023-02-15T02:10:22;35.72;;;32.25;;
63217;SDS011;49314;48.278;16.378;2023-02-15T02:12:48;35.83;;;32.58;;
63217;SDS011;49314;48.278;16.378;2023-02-15T02:15:13;27.83;;;24.60;;
63217;SDS011;49314;48.278;16.378;2023-02-15T02:27:47;36.28;;;33.10;;
63217;SDS011;49314;48.278;16.378;2023-02-15T02:40:44;31.13;;;28.25;;
63217;SDS011;49314;48.278;16.378;2023-02-15T02:43:16;30.90;;;28.10;;
63217;SDS011;49314;48.278;16.378;2023-02-15T02:45:45;32.30;;;29.48;;
63217;SDS011;49314;48.278;16.378;2023-02-15T02:48:14;28.75;;;25.92;;
63217;SDS011;49314;48.278;16.378;2023-02-15T02:50:40;34.42;;;31.08;;
63217;SDS011;49314;48.278;16.378;2023-02-15T02:53:06;30.30;;;27.45;;
63217;SDS011;49314;48.278;16.378;2023-02-15T02:55:32;32.92;;;29.92;;
63217;SDS011;49314;48.278;16.378;2023-02-15T02:58:04;37.42;;;34.17;;
63217;SDS011;49314;48.278;16.378;2023-02-15T03:00:32;32.47;;;29.23;;
63217;SDS011;49314;48.278;16.378;2023-02-15T03:03:03;29.30;;;26.50;;
63217;SDS011;49314;48.278;16.378;2023-02-15T03:05:32;32.78;;;29.77;;
63217;SDS011;49314;48.278;16.378;2023-02-15T03:07:59;38.67;;;35.13;;
63217;SDS011;49314;48.278;16.378;2023-02-15T03:10:30;32.28;;;28.15;;
63217;SDS011;49314;48.278;16.378;2023-02-15T03:12:56;37.67;;;34.15;;
63217;SDS011;49314;48.278;16.378;2023-02-15T03:15:23;36.90;;;33.58;;
63217;SDS011;49314;48.278;16.378;2023-02-15T03:17:55;37.25;;;33.80;;
63217;SDS011;49314;48.278;16.378;2023-02-15T03:20:22;35.97;;;32.33;;
63217;SDS011;49314;48.278;16.378;2023-02-15T03:23:04;37.38;;;33.83;;
63217;SDS011;49314;48.278;16.378;2023-02-15T03:25:34;42.30;;;38.83;;
63217;SDS011;49314;48.278;16.378;2023-02-15T03:28:08;34.75;;;31.45;;
63217;SDS011;49314;48.278;16.378;2023-02-15T03:30:34;40.17;;;36.38;;
63217;SDS011;49314;48.278;16.378;2023-02-15T03:33:01;37.88;;;34.42;;
63217;SDS011;49314;48.278;16.378;2023-02-15T03:35:30;27.48;;;24.30;;
63217;SDS011;49314;48.278;16.378;2023-02-15T03:37:58;33.35;;;30.20;;
63217;SDS011;49314;48.278;16.378;2023-02-15T03:40:29;39.22;;;36.05;;
63217;SDS011;49314;48.278;16.378;2023-02-15T03:45:42;35.97;;;33.00;;
63217;SDS011;49314;48.278;16.378;2023-02-15T03:48:20;33.85;;;30.70;;
63217;SDS011;49314;48.278;16.378;2023-02-15T03:50:47;35.20;;;31.85;;
63217;SDS011;49314;48.278;16.378;2023-02-15T03:53:50;30.25;;;27.38;;
63217;SDS011;49314;48.278;16.378;2023-02-15T03:56:16;39.45;;;36.00;;
63217;SDS011;49314;48.278;16.378;2023-02-15T03:58:41;36.38;;;32.80;;
63217;SDS011;49314;48.278;16.378;2023-02-15T04:01:43;42.28;;;38.58;;
63217;SDS011;49314;48.278;16.378;2023-02-15T04:04:31;38.20;;;34.45;;
63217;SDS011;49314;48.278;16.378;2023-02-15T04:06:57;31.05;;;28.17;;
63217;SDS011;49314;48.278;16.378;2023-02-15T04:09:22;37.00;;;33.47;;
63217;SDS011;49314;48.278;16.378;2023-02-15T04:12:06;37.03;;;33.80;;
63217;SDS011;49314;48.278;16.378;2023-02-15T04:14:32;34.00;;;30.73;;
63217;SDS011;49314;48.278;16.378;2023-02-15T04:17:15;32.03;;;28.95;;
63217;SDS011;49314;48.278;16.378;2023-02-15T04:19:41;29.13;;;25.65;;
63217;SDS011;49314;48.278;16.378;2023-02-15T04:22:24;33.30;;;29.83;;
63217;SDS011;49314;48.278;16.378;2023-02-15T04:25:08;39.17;;;35.75;;
63217;SDS011;49314;48.278;16.378;2023-02-15T04:27:37;38.80;;;35.35;;
63217;SDS011;49314;48.278;16.378;2023-02-15T04:30:03;38.78;;;35.42;;
63217;SDS011;49314;48.278;16.378;2023-02-15T04:32:28;33.00;;;29.63;;
63217;SDS011;49314;48.278;16.378;2023-02-15T04:34:54;35.60;;;32.22;;
63217;SDS011;49314;48.278;16.378;2023-02-15T04:37:19;41.13;;;37.53;;
63217;SDS011;49314;48.278;16.378;2023-02-15T04:39:44;37.10;;;33.25;;
63217;SDS011;49314;48.278;16.378;2023-02-15T04:42:09;36.15;;;32.65;;
63217;SDS011;49314;48.278;16.378;2023-02-15T04:44:34;35.03;;;31.70;;
63217;SDS011;49314;48.278;16.378;2023-02-15T04:47:00;31.92;;;28.73;;
63217;SDS011;49314;48.278;16.378;2023-02-15T04:49:25;37.53;;;34.33;;
63217;SDS011;49314;48.278;16.378;2023-02-15T04:51:50;32.20;;;29.08;;
63217;SDS011;49314;48.278;16.378;2023-02-15T04:54:15;40.20;;;36.38;;
63217;SDS011;49314;48.278;16.378;2023-02-15T04:56:41;38.28;;;34.90;;
63217;SDS011;49314;48.278;16.378;2023-02-15T04:59:09;77.13;;;62.05;;
63217;SDS011;49314;48.278;16.378;2023-02-15T05:01:34;68.10;;;57.92;;
63217;SDS011;49314;48.278;16.378;2023-02-15T05:03:59;52.08;;;46.72;;
63217;SDS011;49314;48.278;16.378;2023-02-15T05:06:24;45.20;;;40.53;;
63217;SDS011;49314;48.278;16.378;2023-02-15T05:08:50;40.25;;;31.77;;
63217;SDS011;49314;48.278;16.378;2023-02-15T05:11:15;38.47;;;31.88;;
63217;SDS011;49314;48.278;16.378;2023-02-15T05:13:40;34.47;;;30.88;;
63217;SDS011;49314;48.278;16.378;2023-02-15T05:16:05;48.90;;;44.35;;
63217;SDS011;49314;48.278;16.378;2023-02-15T05:18:31;49.55;;;44.25;;
63217;SDS011;49314;48.278;16.378;2023-02-15T05:20:56;54.97;;;49.92;;
63217;SDS011;49314;48.278;16.378;2023-02-15T05:23:21;39.78;;;33.92;;
63217;SDS011;49314;48.278;16.378;2023-02-15T05:25:47;42.35;;;38.22;;
63217;SDS011;49314;48.278;16.378;2023-02-15T05:28:31;39.95;;;36.30;;
63217;SDS011;49314;48.278;16.378;2023-02-15T05:31:02;43.55;;;39.53;;
63217;SDS011;49314;48.278;16.378;2023-02-15T05:33:28;43.90;;;39.75;;
63217;SDS011;49314;48.278;16.378;2023-02-15T05:35:53;35.00;;;31.50;;
63217;SDS011;49314;48.278;16.378;2023-02-15T05:38:18;33.25;;;29.80;;
63217;SDS011;49314;48.278;16.378;2023-02-15T05:40:43;35.13;;;31.45;;
63217;SDS011;49314;48.278;16.378;2023-02-15T05:43:09;37.78;;;34.33;;
63217;SDS011;49314;48.278;16.378;2023-02-15T05:45:34;47.17;;;37.92;;
63217;SDS011;49314;48.278;16.378;2023-02-15T05:47:59;43.50;;;39.78;;
63217;SDS011;49314;48.278;16.378;2023-02-15T05:50:25;42.00;;;38.25;;
63217;SDS011;49314;48.278;16.378;2023-02-15T05:52:50;34.50;;;30.80;;
63217;SDS011;49314;48.278;16.378;2023-02-15T05:55:16;38.15;;;34.25;;
63217;SDS011;49314;48.278;16.378;2023-02-15T05:57:41;31.25;;;27.45;;
63217;SDS011;49314;48.278;16.378;2023-02-15T06:00:07;46.80;;;42.90;;
63217;SDS011;49314;48.278;16.378;2023-02-15T06:02:33;44.90;;;40.58;;
63217;SDS011;49314;48.278;16.378;2023-02-15T06:04:59;43.58;;;39.53;;
63217;SDS011;49314;48.278;16.378;2023-02-15T06:07:24;42.50;;;38.28;;
63217;SDS011;49314;48.278;16.378;2023-02-15T06:09:49;42.97;;;38.92;;
63217;SDS011;49314;48.278;16.378;2023-02-15T06:12:14;37.55;;;32.08;;
63217;SDS011;49314;48.278;16.378;2023-02-15T06:14:40;48.67;;;44.28;;
63217;SDS011;49314;48.278;16.378;2023-02-15T06:17:05;41.50;;;37.33;;
63217;SDS011;49314;48.278;16.378;2023-02-15T06:19:31;43.22;;;39.22;;
63217;SDS011;49314;48.278;16.378;2023-02-15T06:21:56;49.53;;;45.10;;
63217;SDS011;49314;48.278;16.378;2023-02-15T06:24:21;44.67;;;40.28;;
63217;SDS011;49314;48.278;16.378;2023-02-15T06:26:47;35.22;;;31.73;;
63217;SDS011;49314;48.278;16.378;2023-02-15T06:29:12;36.17;;;32.33;;
63217;SDS011;49314;48.278;16.378;2023-02-15T06:31:37;35.05;;;29.95;;
63217;SDS011;49314;48.278;16.378;2023-02-15T06:34:02;39.15;;;35.40;;
63217;SDS011;49314;48.278;16.378;2023-02-15T06:36:28;37.30;;;33.17;;
63217;SDS011;49314;48.278;16.378;2023-02-15T06:38:53;39.10;;;35.15;;
63217;SDS011;49314;48.278;16.378;2023-02-15T06:41:19;34.97;;;30.90;;
63217;SDS011;49314;48.278;16.378;2023-02-15T06:43:44;36.17;;;32.30;;
63217;SDS011;49314;48.278;16.378;2023-02-15T06:46:09;36.25;;;32.53;;
63217;SDS011;49314;48.278;16.378;2023-02-15T06:48:34;32.85;;;29.27;;
63217;SDS011;49314;48.278;16.378;2023-02-15T06:51:00;42.15;;;38.15;;
63217;SDS011;49314;48.278;16.378;2023-02-15T06:53:25;32.67;;;29.00;;
63217;SDS011;49314;48.278;16.378;2023-02-15T06:55:50;38.67;;;34.97;;
63217;SDS011;49314;48.278;16.378;2023-02-15T06:58:15;36.25;;;32.50;;
63217;SDS011;49314;48.278;16.378;2023-02-15T07:00:41;46.40;;;42.20;;
63217;SDS011;49314;48.278;16.378;2023-02-15T07:03:06;42.20;;;38.45;;
63217;SDS011;49314;48.278;16.378;2023-02-15T07:05:32;31.92;;;28.63;;
63217;SDS011;49314;48.278;16.378;2023-02-15T07:07:58;33.05;;;29.33;;
63217;SDS011;49314;48.278;16.378;2023-02-15T07:10:24;37.50;;;33.78;;
63217;SDS011;49314;48.278;16.378;2023-02-15T07:12:50;32.80;;;29.35;;
63217;SDS011;49314;48.278;16.378;2023-02-15T07:15:16;36.70;;;32.03;;
63217;SDS011;49314;48.278;16.378;2023-02-15T07:17:42;34.08;;;30.48;;
63217;SDS011;49314;48.278;16.378;2023-02-15T07:20:11;34.30;;;31.05;;
63217;SDS011;49314;48.278;16.378;2023-02-15T07:22:36;36.55;;;32.83;;
63217;SDS011;49314;48.278;16.378;2023-02-15T07:25:05;42.28;;;38.55;;
63217;SDS011;49314;48.278;16.378;2023-02-15T07:27:31;36.30;;;32.53;;
63217;SDS011;49314;48.278;16.378;2023-02-15T07:29:56;39.00;;;35.08;;
63217;SDS011;49314;48.278;16.378;2023-02-15T07:32:22;39.35;;;35.45;;
63217;SDS011;49314;48.278;16.378;2023-02-15T07:34:47;39.50;;;35.88;;
63217;SDS011;49314;48.278;16.378;2023-02-15T07:37:12;37.90;;;34.33;;
63217;SDS011;49314;48.278;16.378;2023-02-15T07:39:37;37.90;;;34.40;;
63217;SDS011;49314;48.278;16.378;2023-02-15T07:42:03;31.92;;;28.55;;
63217;SDS011;49314;48.278;16.378;2023-02-15T07:44:29;39.05;;;35.58;;
63217;SDS011;49314;48.278;16.378;2023-02-15T07:46:55;34.63;;;31.20;;
63217;SDS011;49314;48.278;16.378;2023-02-15T07:49:20;30.13;;;27.15;;
63217;SDS011;49314;48.278;16.378;2023-02-15T07:51:45;31.13;;;27.92;;
63217;SDS011;49314;48.278;16.378;2023-02-15T07:54:11;33.13;;;29.77;;
63217;SDS011;49314;48.278;16.378;2023-02-15T07:56:36;30.27;;;27.30;;
63217;SDS011;49314;48.278;16.378;2023-02-15T07:59:01;36.60;;;31.83;;
63217;SDS011;49314;48.278;16.378;2023-02-15T08:01:32;30.02;;;27.05;;
63217;SDS011;49314;48.278;16.378;2023-02-15T08:03:57;30.27;;;27.38;;
63217;SDS011;49314;48.278;16.378;2023-02-15T08:06:23;32.03;;;28.98;;
63217;SDS011;49314;48.278;16.378;2023-02-15T08:08:49;33.42;;;30.13;;
63217;SDS011;49314;48.278;16.378;2023-02-15T08:11:19;33.58;;;30.42;;
63217;SDS011;49314;48.278;16.378;2023-02-15T08:13:51;37.35;;;33.65;;
63217;SDS011;49314;48.278;16.378;2023-02-15T08:16:21;33.55;;;30.13;;
63217;SDS011;49314;48.278;16.378;2023-02-15T08:18:46;29.23;;;25.65;;
63217;SDS011;49314;48.278;16.378;2023-02-15T08:21:12;31.25;;;27.95;;
63217;SDS011;49314;48.278;16.378;2023-02-15T08:23:37;38.72;;;35.00;;
63217;SDS011;49314;48.278;16.378;2023-02-15T08:26:03;35.00;;;31.33;;
63217;SDS011;49314;48.278;16.378;2023-02-15T08:28:29;33.53;;;29.88;;
63217;SDS011;49314;48.278;16.378;2023-02-15T08:30:54;37.60;;;30.77;;
63217;SDS011;49314;48.278;16.378;2023-02-15T08:33:19;32.70;;;29.27;;
63217;SDS011;49314;48.278;16.378;2023-02-15T08:35:45;32.33;;;29.08;;
63217;SDS011;49314;48.278;16.378;2023-02-15T08:38:10;34.78;;;31.05;;
63217;SDS011;49314;48.278;16.378;2023-02-15T08:40:35;31.30;;;28.15;;
63217;SDS011;49314;48.278;16.378;2023-02-15T08:43:02;35.20;;;31.00;;
63217;SDS011;49314;48.278;16.378;2023-02-15T08:45:28;33.05;;;25.42;;
63217;SDS011;49314;48.278;16.378;2023-02-15T08:47:53;38.88;;;35.33;;
63217;SDS011;49314;48.278;16.378;2023-02-15T08:50:18;33.92;;;30.52;;
63217;SDS011;49314;48.278;16.378;2023-02-15T08:52:43;35.22;;;31.77;;
63217;SDS011;49314;48.278;16.378;2023-02-15T08:55:09;34.65;;;31.15;;
63217;SDS011;49314;48.278;16.378;2023-02-15T08:57:34;30.17;;;26.60;;
63217;SDS011;49314;48.278;16.378;2023-02-15T08:59:59;31.23;;;26.10;;
63217;SDS011;49314;48.278;16.378;2023-02-15T09:02:24;38.03;;;34.22;;
63217;SDS011;49314;48.278;16.378;2023-02-15T09:04:49;31.90;;;28.13;;
63217;SDS011;49314;48.278;16.378;2023-02-15T09:07:16;35.20;;;31.50;;
63217;SDS011;49314;48.278;16.378;2023-02-15T09:09:43;36.75;;;32.35;;
63217;SDS011;49314;48.278;16.378;2023-02-15T09:12:10;34.03;;;28.92;;
63217;SDS011;49314;48.278;16.378;2023-02-15T09:14:35;35.78;;;31.60;;
63217;SDS011;49314;48.278;16.378;2023-02-15T09:17:00;35.20;;;29.00;;
63217;SDS011;49314;48.278;16.378;2023-02-15T09:19:26;36.10;;;32.55;;
63217;SDS011;49314;48.278;16.378;2023-02-15T09:21:51;36.15;;;32.42;;
63217;SDS011;49314;48.278;16.378;2023-02-15T09:24:17;38.33;;;33.70;;
63217;SDS011;49314;48.278;16.378;2023-02-15T09:26:43;39.40;;;35.40;;
63217;SDS011;49314;48.278;16.378;2023-02-15T09:29:09;37.70;;;34.25;;
63217;SDS011;49314;48.278;16.378;2023-02-15T09:31:41;34.13;;;30.48;;
63217;SDS011;49314;48.278;16.378;2023-02-15T09:34:08;31.40;;;28.15;;
63217;SDS011;49314;48.278;16.378;2023-02-15T09:36:35;33.33;;;29.95;;
63217;SDS011;49314;48.278;16.378;2023-02-15T09:39:03;34.30;;;30.90;;
63217;SDS011;49314;48.278;16.378;2023-02-15T09:41:36;31.80;;;28.33;;
63217;SDS011;49314;48.278;16.378;2023-02-15T09:46:57;37.78;;;31.35;;
63217;SDS011;49314;48.278;16.378;2023-02-15T09:49:34;35.00;;;31.25;;
63217;SDS011;49314;48.278;16.378;2023-02-15T09:52:26;34.10;;;30.17;;
63217;SDS011;49314;48.278;16.378;2023-02-15T09:58:57;34.85;;;31.17;;
63217;SDS011;49314;48.278;16.378;2023-02-15T10:05:58;31.77;;;28.33;;
63217;SDS011;49314;48.278;16.378;2023-02-15T10:08:31;32.67;;;29.50;;
63217;SDS011;49314;48.278;16.378;2023-02-15T10:14:40;32.63;;;27.92;;
63217;SDS011;49314;48.278;16.378;2023-02-15T10:19:12;33.95;;;30.08;;
63217;SDS011;49314;48.278;16.378;2023-02-15T10:24:45;30.02;;;26.58;;
63217;SDS011;49314;48.278;16.378;2023-02-15T10:27:15;31.13;;;27.02;;
63217;SDS011;49314;48.278;16.378;2023-02-15T10:53:33;33.53;;;30.23;;
63217;SDS011;49314;48.278;16.378;2023-02-15T11:10:50;47.85;;;44.13;;
63217;SDS011;49314;48.278;16.378;2023-02-15T11:13:18;52.90;;;48.63;;
63217;SDS011;49314;48.278;16.378;2023-02-15T11:15:57;51.92;;;47.80;;
63217;SDS011;49314;48.278;16.378;2023-02-15T11:23:16;38.22;;;34.72;;
63217;SDS011;49314;48.278;16.378;2023-02-15T11:25:44;43.08;;;39.28;;
63217;SDS011;49314;48.278;16.378;2023-02-15T11:28:15;45.58;;;41.88;;
63217;SDS011;49314;48.278;16.378;2023-02-15T11:30:43;51.53;;;47.17;;
63217;SDS011;49314;48.278;16.378;2023-02-15T11:33:17;50.05;;;46.20;;
63217;SDS011;49314;48.278;16.378;2023-02-15T11:35:49;47.13;;;43.08;;
63217;SDS011;49314;48.278;16.378;2023-02-15T11:38:20;51.83;;;47.90;;
63217;SDS011;49314;48.278;16.378;2023-02-15T11:40:49;40.67;;;36.65;;
63217;SDS011;49314;48.278;16.378;2023-02-15T11:43:21;37.45;;;34.00;;
63217;SDS011;49314;48.278;16.378;2023-02-15T11:45:48;43.88;;;40.17;;
63217;SDS011;49314;48.278;16.378;2023-02-15T11:48:14;54.22;;;49.95;;
63217;SDS011;49314;48.278;16.378;2023-02-15T11:50:40;46.00;;;41.70;;
63217;SDS011;49314;48.278;16.378;2023-02-15T11:53:09;50.65;;;46.78;;
63217;SDS011;49314;48.278;16.378;2023-02-15T11:55:35;39.42;;;35.67;;
63217;SDS011;49314;48.278;16.378;2023-02-15T12:00:32;43.45;;;39.65;;
63217;SDS011;49314;48.278;16.378;2023-02-15T12:03:01;43.33;;;39.85;;
63217;SDS011;49314;48.278;16.378;2023-02-15T12:05:27;51.90;;;47.92;;
63217;SDS011;49314;48.278;16.378;2023-02-15T12:07:57;50.38;;;46.47;;
63217;SDS011;49314;48.278;16.378;2023-02-15T12:10:27;41.58;;;37.65;;
63217;SDS011;49314;48.278;16.378;2023-02-15T12:13:15;46.25;;;42.03;;
63217;SDS011;49314;48.278;16.378;2023-02-15T12:15:40;41.95;;;38.03;;
63217;SDS011;49314;48.278;16.378;2023-02-15T12:18:15;41.38;;;37.83;;
63217;SDS011;49314;48.278;16.378;2023-02-15T12:20:42;51.45;;;47.35;;
63217;SDS011;49314;48.278;16.378;2023-02-15T12:23:16;48.00;;;44.17;;
63217;SDS011;49314;48.278;16.378;2023-02-15T12:25:43;50.38;;;46.50;;
63217;SDS011;49314;48.278;16.378;2023-02-15T12:30:57;48.00;;;44.15;;
63217;SDS011;49314;48.278;16.378;2023-02-15T12:33:27;40.60;;;37.05;;
63217;SDS011;49314;48.278;16.378;2023-02-15T12:36:00;50.58;;;46.63;;
63217;SDS011;49314;48.278;16.378;2023-02-15T12:38:26;45.05;;;41.25;;
63217;SDS011;49314;48.278;16.378;2023-02-15T12:41:05;45.03;;;41.13;;
63217;SDS011;49314;48.278;16.378;2023-02-15T12:43:44;45.92;;;42.22;;
63217;SDS011;49314;48.278;16.378;2023-02-15T12:48:44;45.33;;;41.60;;
63217;SDS011;49314;48.278;16.378;2023-02-15T12:51:12;51.20;;;47.33;;
63217;SDS011;49314;48.278;16.378;2023-02-15T12:53:38;51.20;;;47.20;;
63217;SDS011;49314;48.278;16.378;2023-02-15T12:56:07;50.55;;;46.35;;
63217;SDS011;49314;48.278;16.378;2023-02-15T12:58:34;35.58;;;31.85;;
63217;SDS011;49314;48.278;16.378;2023-02-15T13:01:04;34.13;;;30.38;;
63217;SDS011;49314;48.278;16.378;2023-02-15T13:03:36;49.25;;;45.17;;
63217;SDS011;49314;48.278;16.378;2023-02-15T13:06:03;49.90;;;45.95;;
63217;SDS011;49314;48.278;16.378;2023-02-15T13:08:33;49.13;;;45.05;;
63217;SDS011;49314;48.278;16.378;2023-02-15T13:11:06;43.97;;;40.03;;
63217;SDS011;49314;48.278;16.378;2023-02-15T13:16:18;50.50;;;46.60;;
63217;SDS011;49314;48.278;16.378;2023-02-15T13:18:45;51.80;;;47.63;;
63217;SDS011;49314;48.278;16.378;2023-02-15T13:23:39;49.45;;;45.22;;
63217;SDS011;49314;48.278;16.378;2023-02-15T13:26:09;49.13;;;45.33;;
63217;SDS011;49314;48.278;16.378;2023-02-15T13:28:39;50.50;;;46.50;;
63217;SDS011;49314;48.278;16.378;2023-02-15T13:31:11;50.05;;;45.58;;
63217;SDS011;49314;48.278;16.378;2023-02-15T13:33:36;52.83;;;48.25;;
63217;SDS011;49314;48.278;16.378;2023-02-15T13:41:25;49.33;;;45.05;;
63217;SDS011;49314;48.278;16.378;2023-02-15T13:43:56;52.33;;;47.83;;
63217;SDS011;49314;48.278;16.378;2023-02-15T13:51:41;40.30;;;36.38;;
63217;SDS011;49314;48.278;16.378;2023-02-15T13:54:28;51.90;;;47.53;;
63217;SDS011;49314;48.278;16.378;2023-02-15T13:57:41;42.72;;;38.60;;
63217;SDS011;49314;48.278;16.378;2023-02-15T14:02:28;37.88;;;34.20;;
63217;SDS011;49314;48.278;16.378;2023-02-15T14:22:41;51.13;;;47.05;;
63217;SDS011;49314;48.278;16.378;2023-02-15T14:25:18;45.13;;;41.40;;
63217;SDS011;49314;48.278;16.378;2023-02-15T14:27:59;44.92;;;40.90;;
63217;SDS011;49314;48.278;16.378;2023-02-15T14:30:30;42.67;;;38.70;;
63217;SDS011;49314;48.278;16.378;2023-02-15T14:33:05;42.85;;;38.38;;
63217;SDS011;49314;48.278;16.378;2023-02-15T14:35:31;48.92;;;44.13;;
63217;SDS011;49314;48.278;16.378;2023-02-15T14:40:42;48.63;;;44.15;;
63217;SDS011;49314;48.278;16.378;2023-02-15T14:43:34;58.83;;;52.88;;
63217;SDS011;49314;48.278;16.378;2023-02-15T14:48:37;44.30;;;39.90;;
63217;SDS011;49314;48.278;16.378;2023-02-15T14:51:04;51.03;;;46.88;;
63217;SDS011;49314;48.278;16.378;2023-02-15T14:58:35;50.75;;;46.40;;
63217;SDS011;49314;48.278;16.378;2023-02-15T15:01:04;39.97;;;36.05;;
63217;SDS011;49314;48.278;16.378;2023-02-15T15:03:31;52.55;;;47.90;;
63217;SDS011;49314;48.278;16.378;2023-02-15T15:05:56;51.10;;;46.15;;
63217;SDS011;49314;48.278;16.378;2023-02-15T15:08:29;55.88;;;51.03;;
63217;SDS011;49314;48.278;16.378;2023-02-15T15:10:56;44.60;;;39.65;;
63217;SDS011;49314;48.278;16.378;2023-02-15T15:15:56;46.58;;;42.53;;
63217;SDS011;49314;48.278;16.378;2023-02-15T15:21:01;40.95;;;36.60;;
63217;SDS011;49314;48.278;16.378;2023-02-15T15:23:38;52.70;;;48.40;;
63217;SDS011;49314;48.278;16.378;2023-02-15T15:31:20;55.63;;;51.00;;
63217;SDS011;49314;48.278;16.378;2023-02-15T15:48:59;56.65;;;51.50;;
63217;SDS011;49314;48.278;16.378;2023-02-15T15:51:32;52.88;;;48.05;;
63217;SDS011;49314;48.278;16.378;2023-02-15T15:53:58;55.88;;;50.83;;
63217;SDS011;49314;48.278;16.378;2023-02-15T15:56:25;57.13;;;52.15;;
63217;SDS011;49314;48.278;16.378;2023-02-15T15:58:57;54.67;;;50.35;;
63217;SDS011;49314;48.278;16.378;2023-02-15T16:01:24;56.22;;;51.17;;
63217;SDS011;49314;48.278;16.378;2023-02-15T16:03:52;54.50;;;49.65;;
63217;SDS011;49314;48.278;16.378;2023-02-15T16:06:37;57.55;;;52.50;;
63217;SDS011;49314;48.278;16.378;2023-02-15T16:09:09;54.75;;;50.25;;
63217;SDS011;49314;48.278;16.378;2023-02-15T16:11:35;58.60;;;53.20;;
63217;SDS011;49314;48.278;16.378;2023-02-15T16:14:07;54.22;;;49.60;;
63217;SDS011;49314;48.278;16.378;2023-02-15T16:16:33;58.92;;;53.92;;
63217;SDS011;49314;48.278;16.378;2023-02-15T16:18:58;54.83;;;50.05;;
63217;SDS011;49314;48.278;16.378;2023-02-15T16:21:28;53.85;;;49.10;;
63217;SDS011;49314;48.278;16.378;2023-02-15T16:29:31;56.85;;;51.92;;
63217;SDS011;49314;48.278;16.378;2023-02-15T16:32:04;55.15;;;50.13;;
63217;SDS011;49314;48.278;16.378;2023-02-15T16:34:30;52.70;;;48.00;;
63217;SDS011;49314;48.278;16.378;2023-02-15T16:37:16;56.20;;;51.05;;
63217;SDS011;49314;48.278;16.378;2023-02-15T16:39:42;55.95;;;50.85;;
63217;SDS011;49314;48.278;16.378;2023-02-15T16:42:08;60.03;;;54.78;;
63217;SDS011;49314;48.278;16.378;2023-02-15T16:44:35;60.30;;;54.97;;
63217;SDS011;49314;48.278;16.378;2023-02-15T16:47:00;57.20;;;52.15;;
63217;SDS011;49314;48.278;16.378;2023-02-15T16:49:26;58.30;;;53.55;;
63217;SDS011;49314;48.278;16.378;2023-02-15T16:52:05;56.65;;;51.65;;
63217;SDS011;49314;48.278;16.378;2023-02-15T16:54:31;55.85;;;50.95;;
63217;SDS011;49314;48.278;16.378;2023-02-15T16:56:56;56.55;;;51.70;;
63217;SDS011;49314;48.278;16.378;2023-02-15T16:59:41;58.50;;;53.30;;
63217;SDS011;49314;48.278;16.378;2023-02-15T17:02:18;57.00;;;52.08;;
63217;SDS011;49314;48.278;16.378;2023-02-15T17:04:44;58.13;;;52.67;;
63217;SDS011;49314;48.278;16.378;2023-02-15T17:07:16;56.10;;;51.00;;
63217;SDS011;49314;48.278;16.378;2023-02-15T17:09:48;54.58;;;49.75;;